Terminal Aerodrome Forecast
Issued by NWS Shreveport, LA

Current Version | Previous Version | Text Only | Print | Product List | Glossary On
Versions: 1 2 3 4 5 6 7 8 9 10 11 12 13 14 15 16 17 18 19 20 21 22
000
FTUS44 KSHV 060744 AAA
TAFMLU
TAF AMD
KMLU 060744Z 0608/0706 24006KT P6SM SCT005 BKN019 OVC045
      TEMPO 0608/0610 4SM BR BKN005
     FM061000 30006KT 2SM -DZ BR OVC005
     FM061600 30006KT P6SM OVC009
     FM061900 35006KT P6SM BKN015
     FM070100 05003KT P6SM BKN010=

USA.gov is the U.S. government's official web portal to all federal, state and local government web resources and services.